sensor_id;sensor_type;location;lat;lon;timestamp;P1;durP1;ratioP1;P2;durP2;ratioP2
79137;SDS011;68544;45.566;10.238;2024-01-25T00:00:26;36.00;;;28.03;;
79137;SDS011;68544;45.566;10.238;2024-01-25T00:02:52;31.93;;;26.10;;
79137;SDS011;68544;45.566;10.238;2024-01-25T00:05:17;33.90;;;28.03;;
79137;SDS011;68544;45.566;10.238;2024-01-25T00:07:48;26.80;;;20.57;;
79137;SDS011;68544;45.566;10.238;2024-01-25T00:10:15;35.00;;;28.38;;
79137;SDS011;68544;45.566;10.238;2024-01-25T00:12:41;40.25;;;34.35;;
79137;SDS011;68544;45.566;10.238;2024-01-25T00:15:07;41.75;;;34.72;;
79137;SDS011;68544;45.566;10.238;2024-01-25T00:17:33;39.45;;;32.28;;
79137;SDS011;68544;45.566;10.238;2024-01-25T00:19:59;41.93;;;32.73;;
79137;SDS011;68544;45.566;10.238;2024-01-25T00:22:24;38.07;;;33.53;;
79137;SDS011;68544;45.566;10.238;2024-01-25T00:24:49;44.03;;;34.93;;
79137;SDS011;68544;45.566;10.238;2024-01-25T00:27:15;31.10;;;26.67;;
79137;SDS011;68544;45.566;10.238;2024-01-25T00:29:40;40.07;;;33.20;;
79137;SDS011;68544;45.566;10.238;2024-01-25T00:32:05;31.57;;;25.83;;
79137;SDS011;68544;45.566;10.238;2024-01-25T00:34:31;41.20;;;33.23;;
79137;SDS011;68544;45.566;10.238;2024-01-25T00:36:56;41.37;;;35.07;;
79137;SDS011;68544;45.566;10.238;2024-01-25T00:39:22;30.23;;;26.27;;
79137;SDS011;68544;45.566;10.238;2024-01-25T00:41:48;43.27;;;34.67;;
79137;SDS011;68544;45.566;10.238;2024-01-25T00:44:16;40.40;;;32.60;;
79137;SDS011;68544;45.566;10.238;2024-01-25T00:46:41;41.13;;;32.83;;
79137;SDS011;68544;45.566;10.238;2024-01-25T00:49:07;38.60;;;32.00;;
79137;SDS011;68544;45.566;10.238;2024-01-25T00:51:33;39.37;;;30.83;;
79137;SDS011;68544;45.566;10.238;2024-01-25T00:53:59;28.47;;;25.43;;
79137;SDS011;68544;45.566;10.238;2024-01-25T00:56:24;30.90;;;24.00;;
79137;SDS011;68544;45.566;10.238;2024-01-25T00:58:50;41.10;;;34.20;;
79137;SDS011;68544;45.566;10.238;2024-01-25T01:01:16;39.77;;;33.97;;
79137;SDS011;68544;45.566;10.238;2024-01-25T01:03:44;39.80;;;33.13;;
79137;SDS011;68544;45.566;10.238;2024-01-25T01:06:10;43.50;;;35.40;;
79137;SDS011;68544;45.566;10.238;2024-01-25T01:08:36;42.27;;;35.73;;
79137;SDS011;68544;45.566;10.238;2024-01-25T01:11:02;44.00;;;35.83;;
79137;SDS011;68544;45.566;10.238;2024-01-25T01:13:27;42.30;;;34.43;;
79137;SDS011;68544;45.566;10.238;2024-01-25T01:15:52;42.50;;;35.47;;
79137;SDS011;68544;45.566;10.238;2024-01-25T01:18:18;41.93;;;35.53;;
79137;SDS011;68544;45.566;10.238;2024-01-25T01:20:43;43.97;;;34.30;;
79137;SDS011;68544;45.566;10.238;2024-01-25T01:23:08;47.30;;;34.87;;
79137;SDS011;68544;45.566;10.238;2024-01-25T01:25:34;40.33;;;32.63;;
79137;SDS011;68544;45.566;10.238;2024-01-25T01:27:59;26.90;;;22.70;;
79137;SDS011;68544;45.566;10.238;2024-01-25T01:30:24;39.47;;;32.23;;
79137;SDS011;68544;45.566;10.238;2024-01-25T01:32:49;39.67;;;33.13;;
79137;SDS011;68544;45.566;10.238;2024-01-25T01:35:15;32.00;;;22.63;;
79137;SDS011;68544;45.566;10.238;2024-01-25T01:37:40;27.70;;;23.00;;
79137;SDS011;68544;45.566;10.238;2024-01-25T01:40:06;25.67;;;22.03;;
79137;SDS011;68544;45.566;10.238;2024-01-25T01:42:31;32.33;;;26.33;;
79137;SDS011;68544;45.566;10.238;2024-01-25T01:44:58;42.17;;;33.10;;
79137;SDS011;68544;45.566;10.238;2024-01-25T01:47:24;45.73;;;35.00;;
79137;SDS011;68544;45.566;10.238;2024-01-25T01:49:49;29.30;;;25.53;;
79137;SDS011;68544;45.566;10.238;2024-01-25T01:52:14;43.87;;;36.87;;
79137;SDS011;68544;45.566;10.238;2024-01-25T01:54:40;31.30;;;27.03;;
79137;SDS011;68544;45.566;10.238;2024-01-25T01:57:06;44.33;;;37.20;;
79137;SDS011;68544;45.566;10.238;2024-01-25T01:59:33;46.58;;;36.90;;
79137;SDS011;68544;45.566;10.238;2024-01-25T02:01:58;45.13;;;37.40;;
79137;SDS011;68544;45.566;10.238;2024-01-25T02:04:24;37.17;;;29.97;;
79137;SDS011;68544;45.566;10.238;2024-01-25T02:06:49;39.20;;;33.20;;
79137;SDS011;68544;45.566;10.238;2024-01-25T02:09:14;36.63;;;31.40;;
79137;SDS011;68544;45.566;10.238;2024-01-25T02:11:40;36.23;;;27.13;;
79137;SDS011;68544;45.566;10.238;2024-01-25T02:14:05;33.93;;;27.57;;
79137;SDS011;68544;45.566;10.238;2024-01-25T02:16:35;43.88;;;36.10;;
79137;SDS011;68544;45.566;10.238;2024-01-25T02:19:00;42.70;;;35.63;;
79137;SDS011;68544;45.566;10.238;2024-01-25T02:21:26;42.60;;;36.23;;
79137;SDS011;68544;45.566;10.238;2024-01-25T02:23:51;37.07;;;27.97;;
79137;SDS011;68544;45.566;10.238;2024-01-25T02:26:17;42.10;;;35.40;;
79137;SDS011;68544;45.566;10.238;2024-01-25T02:28:42;41.33;;;34.93;;
79137;SDS011;68544;45.566;10.238;2024-01-25T02:31:07;33.50;;;27.13;;
79137;SDS011;68544;45.566;10.238;2024-01-25T02:33:32;43.07;;;35.07;;
79137;SDS011;68544;45.566;10.238;2024-01-25T02:35:58;31.27;;;26.30;;
79137;SDS011;68544;45.566;10.238;2024-01-25T02:38:23;40.17;;;32.37;;
79137;SDS011;68544;45.566;10.238;2024-01-25T02:40:49;40.33;;;32.73;;
79137;SDS011;68544;45.566;10.238;2024-01-25T02:43:14;38.53;;;31.10;;
79137;SDS011;68544;45.566;10.238;2024-01-25T02:45:39;40.40;;;33.13;;
79137;SDS011;68544;45.566;10.238;2024-01-25T02:48:05;42.23;;;34.43;;
79137;SDS011;68544;45.566;10.238;2024-01-25T02:50:30;28.33;;;24.97;;
79137;SDS011;68544;45.566;10.238;2024-01-25T02:52:56;30.93;;;25.47;;
79137;SDS011;68544;45.566;10.238;2024-01-25T02:55:21;29.75;;;25.30;;
79137;SDS011;68544;45.566;10.238;2024-01-25T02:57:47;42.87;;;36.07;;
79137;SDS011;68544;45.566;10.238;2024-01-25T03:00:12;32.03;;;27.17;;
79137;SDS011;68544;45.566;10.238;2024-01-25T03:02:38;42.28;;;34.60;;
79137;SDS011;68544;45.566;10.238;2024-01-25T03:05:03;40.60;;;33.37;;
79137;SDS011;68544;45.566;10.238;2024-01-25T03:07:29;35.57;;;30.57;;
79137;SDS011;68544;45.566;10.238;2024-01-25T03:09:54;37.60;;;30.70;;
79137;SDS011;68544;45.566;10.238;2024-01-25T03:12:20;28.77;;;23.80;;
79137;SDS011;68544;45.566;10.238;2024-01-25T03:14:45;35.50;;;28.40;;
79137;SDS011;68544;45.566;10.238;2024-01-25T03:17:10;33.17;;;25.57;;
79137;SDS011;68544;45.566;10.238;2024-01-25T03:19:37;42.25;;;32.42;;
79137;SDS011;68544;45.566;10.238;2024-01-25T03:22:03;30.50;;;25.70;;
79137;SDS011;68544;45.566;10.238;2024-01-25T03:24:28;39.30;;;32.33;;
79137;SDS011;68544;45.566;10.238;2024-01-25T03:26:54;38.90;;;31.50;;
79137;SDS011;68544;45.566;10.238;2024-01-25T03:29:19;32.50;;;27.50;;
79137;SDS011;68544;45.566;10.238;2024-01-25T03:31:45;43.33;;;33.00;;
79137;SDS011;68544;45.566;10.238;2024-01-25T03:34:10;30.93;;;25.10;;
79137;SDS011;68544;45.566;10.238;2024-01-25T03:36:35;39.20;;;32.07;;
79137;SDS011;68544;45.566;10.238;2024-01-25T03:39:01;28.15;;;24.17;;
79137;SDS011;68544;45.566;10.238;2024-01-25T03:41:28;36.60;;;30.02;;
79137;SDS011;68544;45.566;10.238;2024-01-25T03:43:54;39.47;;;31.50;;
79137;SDS011;68544;45.566;10.238;2024-01-25T03:46:19;30.07;;;23.77;;
79137;SDS011;68544;45.566;10.238;2024-01-25T03:48:45;36.97;;;30.67;;
79137;SDS011;68544;45.566;10.238;2024-01-25T03:51:10;42.63;;;32.87;;
79137;SDS011;68544;45.566;10.238;2024-01-25T03:53:35;35.00;;;30.13;;
79137;SDS011;68544;45.566;10.238;2024-01-25T03:56:01;30.93;;;25.17;;
79137;SDS011;68544;45.566;10.238;2024-01-25T03:58:26;30.37;;;25.23;;
79137;SDS011;68544;45.566;10.238;2024-01-25T04:00:52;40.50;;;32.20;;
79137;SDS011;68544;45.566;10.238;2024-01-25T04:03:17;29.90;;;23.83;;
79137;SDS011;68544;45.566;10.238;2024-01-25T04:05:42;37.43;;;30.97;;
79137;SDS011;68544;45.566;10.238;2024-01-25T04:08:08;39.13;;;27.83;;
79137;SDS011;68544;45.566;10.238;2024-01-25T04:10:33;31.73;;;24.57;;
79137;SDS011;68544;45.566;10.238;2024-01-25T04:12:59;32.90;;;25.07;;
79137;SDS011;68544;45.566;10.238;2024-01-25T04:15:29;35.88;;;31.55;;
79137;SDS011;68544;45.566;10.238;2024-01-25T04:17:55;41.63;;;32.47;;
79137;SDS011;68544;45.566;10.238;2024-01-25T04:20:21;28.30;;;24.88;;
79137;SDS011;68544;45.566;10.238;2024-01-25T04:22:46;30.33;;;24.13;;
79137;SDS011;68544;45.566;10.238;2024-01-25T04:25:12;31.27;;;25.10;;
79137;SDS011;68544;45.566;10.238;2024-01-25T04:27:37;32.93;;;26.23;;
79137;SDS011;68544;45.566;10.238;2024-01-25T04:30:03;39.47;;;33.40;;
79137;SDS011;68544;45.566;10.238;2024-01-25T04:32:30;38.28;;;31.73;;
79137;SDS011;68544;45.566;10.238;2024-01-25T04:34:55;30.40;;;25.63;;
79137;SDS011;68544;45.566;10.238;2024-01-25T04:37:20;40.27;;;32.73;;
79137;SDS011;68544;45.566;10.238;2024-01-25T04:39:46;34.80;;;26.67;;
79137;SDS011;68544;45.566;10.238;2024-01-25T04:42:11;39.40;;;33.30;;
79137;SDS011;68544;45.566;10.238;2024-01-25T04:44:36;38.23;;;32.53;;
79137;SDS011;68544;45.566;10.238;2024-01-25T04:47:02;28.63;;;24.70;;
79137;SDS011;68544;45.566;10.238;2024-01-25T04:49:27;33.53;;;26.83;;
79137;SDS011;68544;45.566;10.238;2024-01-25T04:51:52;30.80;;;27.00;;
79137;SDS011;68544;45.566;10.238;2024-01-25T04:54:17;39.80;;;33.37;;
79137;SDS011;68544;45.566;10.238;2024-01-25T04:56:43;31.47;;;25.53;;
79137;SDS011;68544;45.566;10.238;2024-01-25T04:59:08;31.70;;;27.50;;
79137;SDS011;68544;45.566;10.238;2024-01-25T05:01:33;41.23;;;32.90;;
79137;SDS011;68544;45.566;10.238;2024-01-25T05:03:59;30.43;;;23.87;;
79137;SDS011;68544;45.566;10.238;2024-01-25T05:06:24;31.50;;;24.40;;
79137;SDS011;68544;45.566;10.238;2024-01-25T05:08:50;39.95;;;31.95;;
79137;SDS011;68544;45.566;10.238;2024-01-25T05:11:16;36.63;;;30.43;;
79137;SDS011;68544;45.566;10.238;2024-01-25T05:13:41;31.73;;;24.00;;
79137;SDS011;68544;45.566;10.238;2024-01-25T05:16:07;27.10;;;22.03;;
79137;SDS011;68544;45.566;10.238;2024-01-25T05:18:32;37.17;;;29.83;;
79137;SDS011;68544;45.566;10.238;2024-01-25T05:20:57;37.23;;;30.07;;
79137;SDS011;68544;45.566;10.238;2024-01-25T05:23:23;37.80;;;31.17;;
79137;SDS011;68544;45.566;10.238;2024-01-25T05:25:49;35.42;;;28.75;;
79137;SDS011;68544;45.566;10.238;2024-01-25T05:28:14;36.67;;;29.83;;
79137;SDS011;68544;45.566;10.238;2024-01-25T05:30:40;30.40;;;23.00;;
79137;SDS011;68544;45.566;10.238;2024-01-25T05:33:05;70.80;;;61.70;;
79137;SDS011;68544;45.566;10.238;2024-01-25T05:35:30;294.20;;;204.60;;
79137;SDS011;68544;45.566;10.238;2024-01-25T05:37:56;546.65;;;272.10;;
79137;SDS011;68544;45.566;10.238;2024-01-25T05:40:22;487.87;;;262.50;;
79137;SDS011;68544;45.566;10.238;2024-01-25T05:42:47;239.13;;;204.10;;
79137;SDS011;68544;45.566;10.238;2024-01-25T05:45:12;160.17;;;142.80;;
79137;SDS011;68544;45.566;10.238;2024-01-25T05:47:38;124.33;;;110.90;;
79137;SDS011;68544;45.566;10.238;2024-01-25T05:50:04;78.10;;;69.85;;
79137;SDS011;68544;45.566;10.238;2024-01-25T05:52:30;96.20;;;85.85;;
79137;SDS011;68544;45.566;10.238;2024-01-25T05:54:55;69.03;;;61.93;;
79137;SDS011;68544;45.566;10.238;2024-01-25T05:57:21;73.97;;;66.07;;
79137;SDS011;68544;45.566;10.238;2024-01-25T05:59:46;49.73;;;43.97;;
79137;SDS011;68544;45.566;10.238;2024-01-25T06:02:12;74.28;;;66.40;;
79137;SDS011;68544;45.566;10.238;2024-01-25T06:04:38;75.97;;;68.05;;
79137;SDS011;68544;45.566;10.238;2024-01-25T06:07:04;74.60;;;66.18;;
79137;SDS011;68544;45.566;10.238;2024-01-25T06:09:29;53.70;;;47.03;;
79137;SDS011;68544;45.566;10.238;2024-01-25T06:11:54;71.20;;;63.20;;
79137;SDS011;68544;45.566;10.238;2024-01-25T06:14:20;38.80;;;34.03;;
79137;SDS011;68544;45.566;10.238;2024-01-25T06:16:45;35.47;;;29.70;;
79137;SDS011;68544;45.566;10.238;2024-01-25T06:19:11;35.47;;;29.50;;
79137;SDS011;68544;45.566;10.238;2024-01-25T06:21:36;44.10;;;34.67;;
79137;SDS011;68544;45.566;10.238;2024-01-25T06:24:03;41.90;;;36.72;;
79137;SDS011;68544;45.566;10.238;2024-01-25T06:26:29;43.85;;;34.75;;
79137;SDS011;68544;45.566;10.238;2024-01-25T06:28:54;40.70;;;35.67;;
79137;SDS011;68544;45.566;10.238;2024-01-25T06:31:19;39.50;;;33.83;;
79137;SDS011;68544;45.566;10.238;2024-01-25T06:33:44;40.43;;;34.43;;
79137;SDS011;68544;45.566;10.238;2024-01-25T06:36:12;42.17;;;34.33;;
79137;SDS011;68544;45.566;10.238;2024-01-25T06:38:40;43.08;;;33.72;;
79137;SDS011;68544;45.566;10.238;2024-01-25T06:41:05;40.47;;;33.20;;
79137;SDS011;68544;45.566;10.238;2024-01-25T06:43:31;27.43;;;23.23;;
79137;SDS011;68544;45.566;10.238;2024-01-25T06:45:56;36.27;;;29.90;;
79137;SDS011;68544;45.566;10.238;2024-01-25T06:48:21;27.27;;;23.80;;
79137;SDS011;68544;45.566;10.238;2024-01-25T06:50:46;42.67;;;32.37;;
79137;SDS011;68544;45.566;10.238;2024-01-25T06:53:12;29.77;;;25.10;;
79137;SDS011;68544;45.566;10.238;2024-01-25T06:55:37;41.33;;;30.90;;
79137;SDS011;68544;45.566;10.238;2024-01-25T06:58:03;29.37;;;23.43;;
79137;SDS011;68544;45.566;10.238;2024-01-25T07:00:28;30.93;;;24.73;;
79137;SDS011;68544;45.566;10.238;2024-01-25T07:02:53;30.87;;;23.80;;
79137;SDS011;68544;45.566;10.238;2024-01-25T07:05:19;40.83;;;32.57;;
79137;SDS011;68544;45.566;10.238;2024-01-25T07:07:44;43.37;;;32.63;;
79137;SDS011;68544;45.566;10.238;2024-01-25T07:10:10;32.37;;;24.93;;
79137;SDS011;68544;45.566;10.238;2024-01-25T07:12:35;41.07;;;33.30;;
79137;SDS011;68544;45.566;10.238;2024-01-25T07:15:00;31.47;;;24.40;;
79137;SDS011;68544;45.566;10.238;2024-01-25T07:17:26;32.97;;;24.10;;
79137;SDS011;68544;45.566;10.238;2024-01-25T07:19:51;32.17;;;25.10;;
79137;SDS011;68544;45.566;10.238;2024-01-25T07:22:16;29.53;;;23.90;;
79137;SDS011;68544;45.566;10.238;2024-01-25T07:27:08;38.75;;;31.65;;
79137;SDS011;68544;45.566;10.238;2024-01-25T07:29:35;39.13;;;32.30;;
79137;SDS011;68544;45.566;10.238;2024-01-25T07:32:01;36.80;;;26.15;;
79137;SDS011;68544;45.566;10.238;2024-01-25T07:34:27;40.28;;;33.58;;
79137;SDS011;68544;45.566;10.238;2024-01-25T07:36:52;47.97;;;41.90;;
79137;SDS011;68544;45.566;10.238;2024-01-25T07:39:18;45.17;;;36.93;;
79137;SDS011;68544;45.566;10.238;2024-01-25T07:41:43;57.37;;;44.03;;
79137;SDS011;68544;45.566;10.238;2024-01-25T07:44:08;50.33;;;42.57;;
79137;SDS011;68544;45.566;10.238;2024-01-25T07:46:34;49.53;;;39.20;;
79137;SDS011;68544;45.566;10.238;2024-01-25T07:48:59;48.50;;;39.60;;
79137;SDS011;68544;45.566;10.238;2024-01-25T07:51:24;37.40;;;30.90;;
79137;SDS011;68544;45.566;10.238;2024-01-25T07:53:53;47.30;;;38.55;;
79137;SDS011;68544;45.566;10.238;2024-01-25T07:56:19;54.90;;;48.97;;
79137;SDS011;68544;45.566;10.238;2024-01-25T07:58:44;56.40;;;38.77;;
79137;SDS011;68544;45.566;10.238;2024-01-25T08:01:10;52.20;;;40.10;;
79137;SDS011;68544;45.566;10.238;2024-01-25T08:03:35;41.87;;;32.40;;
79137;SDS011;68544;45.566;10.238;2024-01-25T08:06:01;46.88;;;37.50;;
79137;SDS011;68544;45.566;10.238;2024-01-25T08:08:28;47.33;;;37.25;;
79137;SDS011;68544;45.566;10.238;2024-01-25T08:10:53;32.90;;;27.60;;
79137;SDS011;68544;45.566;10.238;2024-01-25T08:13:18;49.63;;;36.53;;
79137;SDS011;68544;45.566;10.238;2024-01-25T08:15:44;34.93;;;28.97;;
79137;SDS011;68544;45.566;10.238;2024-01-25T08:18:10;45.90;;;35.95;;
79137;SDS011;68544;45.566;10.238;2024-01-25T08:20:36;40.80;;;32.93;;
79137;SDS011;68544;45.566;10.238;2024-01-25T08:23:02;41.15;;;32.80;;
79137;SDS011;68544;45.566;10.238;2024-01-25T08:25:28;39.30;;;32.83;;
79137;SDS011;68544;45.566;10.238;2024-01-25T08:27:53;40.80;;;31.23;;
79137;SDS011;68544;45.566;10.238;2024-01-25T08:30:18;30.80;;;23.73;;
79137;SDS011;68544;45.566;10.238;2024-01-25T08:32:43;38.37;;;31.83;;
79137;SDS011;68544;45.566;10.238;2024-01-25T08:35:09;31.23;;;25.33;;
79137;SDS011;68544;45.566;10.238;2024-01-25T08:37:35;37.78;;;32.25;;
79137;SDS011;68544;45.566;10.238;2024-01-25T08:40:03;41.20;;;32.38;;
79137;SDS011;68544;45.566;10.238;2024-01-25T08:42:31;40.33;;;31.65;;
79137;SDS011;68544;45.566;10.238;2024-01-25T08:44:56;31.47;;;23.77;;
79137;SDS011;68544;45.566;10.238;2024-01-25T08:47:21;41.60;;;30.97;;
79137;SDS011;68544;45.566;10.238;2024-01-25T08:49:47;30.80;;;22.90;;
79137;SDS011;68544;45.566;10.238;2024-01-25T08:52:12;27.93;;;23.40;;
79137;SDS011;68544;45.566;10.238;2024-01-25T08:54:38;39.30;;;31.17;;
79137;SDS011;68544;45.566;10.238;2024-01-25T08:57:04;38.07;;;31.50;;
79137;SDS011;68544;45.566;10.238;2024-01-25T08:59:31;39.28;;;32.13;;
79137;SDS011;68544;45.566;10.238;2024-01-25T09:01:58;39.92;;;32.53;;
79137;SDS011;68544;45.566;10.238;2024-01-25T09:04:23;42.20;;;34.10;;
79137;SDS011;68544;45.566;10.238;2024-01-25T09:06:49;38.67;;;31.70;;
79137;SDS011;68544;45.566;10.238;2024-01-25T09:09:14;42.67;;;31.97;;
79137;SDS011;68544;45.566;10.238;2024-01-25T09:11:39;34.93;;;24.47;;
79137;SDS011;68544;45.566;10.238;2024-01-25T09:14:05;48.93;;;34.70;;
79137;SDS011;68544;45.566;10.238;2024-01-25T09:16:30;42.00;;;26.73;;
79137;SDS011;68544;45.566;10.238;2024-01-25T09:18:55;57.30;;;34.03;;
79137;SDS011;68544;45.566;10.238;2024-01-25T09:21:21;43.13;;;31.93;;
79137;SDS011;68544;45.566;10.238;2024-01-25T09:23:46;44.47;;;27.33;;
79137;SDS011;68544;45.566;10.238;2024-01-25T09:26:11;48.47;;;33.03;;
79137;SDS011;68544;45.566;10.238;2024-01-25T09:28:37;40.07;;;31.83;;
79137;SDS011;68544;45.566;10.238;2024-01-25T09:31:02;38.47;;;30.80;;
79137;SDS011;68544;45.566;10.238;2024-01-25T09:33:28;39.43;;;25.07;;
79137;SDS011;68544;45.566;10.238;2024-01-25T09:35:54;45.85;;;32.97;;
79137;SDS011;68544;45.566;10.238;2024-01-25T09:38:21;52.88;;;34.03;;
79137;SDS011;68544;45.566;10.238;2024-01-25T09:40:47;45.30;;;34.55;;
79137;SDS011;68544;45.566;10.238;2024-01-25T09:43:13;51.72;;;34.85;;
79137;SDS011;68544;45.566;10.238;2024-01-25T09:45:39;43.97;;;33.43;;
79137;SDS011;68544;45.566;10.238;2024-01-25T09:48:09;43.55;;;33.47;;
79137;SDS011;68544;45.566;10.238;2024-01-25T09:50:34;42.20;;;34.83;;
79137;SDS011;68544;45.566;10.238;2024-01-25T09:53:00;38.57;;;34.43;;
79137;SDS011;68544;45.566;10.238;2024-01-25T09:55:26;40.83;;;36.40;;
79137;SDS011;68544;45.566;10.238;2024-01-25T09:57:55;41.17;;;36.28;;
79137;SDS011;68544;45.566;10.238;2024-01-25T10:00:23;43.95;;;36.30;;
79137;SDS011;68544;45.566;10.238;2024-01-25T10:02:49;42.13;;;37.00;;
79137;SDS011;68544;45.566;10.238;2024-01-25T10:05:16;42.97;;;37.20;;
79137;SDS011;68544;45.566;10.238;2024-01-25T10:07:42;44.58;;;37.80;;
79137;SDS011;68544;45.566;10.238;2024-01-25T10:10:10;42.47;;;35.65;;
79137;SDS011;68544;45.566;10.238;2024-01-25T10:12:40;46.28;;;36.08;;
79137;SDS011;68544;45.566;10.238;2024-01-25T10:15:06;41.58;;;36.22;;
79137;SDS011;68544;45.566;10.238;2024-01-25T10:17:32;45.33;;;36.83;;
79137;SDS011;68544;45.566;10.238;2024-01-25T10:19:58;41.63;;;36.93;;
79137;SDS011;68544;45.566;10.238;2024-01-25T10:22:24;41.35;;;36.70;;
79137;SDS011;68544;45.566;10.238;2024-01-25T10:24:49;44.10;;;38.17;;
79137;SDS011;68544;45.566;10.238;2024-01-25T10:27:18;40.40;;;35.55;;
79137;SDS011;68544;45.566;10.238;2024-01-25T10:29:44;39.47;;;34.65;;
79137;SDS011;68544;45.566;10.238;2024-01-25T10:32:10;37.57;;;33.77;;
79137;SDS011;68544;45.566;10.238;2024-01-25T10:34:36;38.57;;;34.47;;
79137;SDS011;68544;45.566;10.238;2024-01-25T10:37:05;38.15;;;34.42;;
79137;SDS011;68544;45.566;10.238;2024-01-25T10:39:31;38.97;;;34.95;;
79137;SDS011;68544;45.566;10.238;2024-01-25T10:41:58;38.78;;;34.65;;
79137;SDS011;68544;45.566;10.238;2024-01-25T10:44:23;38.38;;;34.63;;
79137;SDS011;68544;45.566;10.238;2024-01-25T10:46:49;36.65;;;32.80;;
79137;SDS011;68544;45.566;10.238;2024-01-25T10:49:15;38.35;;;34.50;;
79137;SDS011;68544;45.566;10.238;2024-01-25T10:51:42;38.20;;;34.22;;
79137;SDS011;68544;45.566;10.238;2024-01-25T10:54:09;37.03;;;33.13;;
79137;SDS011;68544;45.566;10.238;2024-01-25T10:56:36;37.83;;;34.10;;
79137;SDS011;68544;45.566;10.238;2024-01-25T10:59:02;39.45;;;35.22;;
79137;SDS011;68544;45.566;10.238;2024-01-25T11:01:28;39.90;;;36.03;;
79137;SDS011;68544;45.566;10.238;2024-01-25T11:03:54;37.88;;;33.97;;
79137;SDS011;68544;45.566;10.238;2024-01-25T11:06:20;78.13;;;39.78;;
79137;SDS011;68544;45.566;10.238;2024-01-25T11:08:47;47.60;;;39.78;;
79137;SDS011;68544;45.566;10.238;2024-01-25T11:11:13;45.08;;;37.67;;
79137;SDS011;68544;45.566;10.238;2024-01-25T11:13:40;42.13;;;37.95;;
79137;SDS011;68544;45.566;10.238;2024-01-25T11:19:04;46.25;;;41.63;;
79137;SDS011;68544;45.566;10.238;2024-01-25T11:21:49;45.83;;;40.50;;
79137;SDS011;68544;45.566;10.238;2024-01-25T11:24:16;56.50;;;40.80;;
79137;SDS011;68544;45.566;10.238;2024-01-25T11:26:45;46.42;;;41.28;;
79137;SDS011;68544;45.566;10.238;2024-01-25T11:29:18;43.03;;;38.75;;
79137;SDS011;68544;45.566;10.238;2024-01-25T11:31:45;46.55;;;41.60;;
79137;SDS011;68544;45.566;10.238;2024-01-25T11:34:12;45.65;;;40.05;;
79137;SDS011;68544;45.566;10.238;2024-01-25T11:36:39;47.58;;;42.75;;
79137;SDS011;68544;45.566;10.238;2024-01-25T11:39:04;46.20;;;41.63;;
79137;SDS011;68544;45.566;10.238;2024-01-25T11:41:32;48.65;;;40.88;;
79137;SDS011;68544;45.566;10.238;2024-01-25T11:43:57;45.53;;;38.17;;
79137;SDS011;68544;45.566;10.238;2024-01-25T11:46:23;44.67;;;39.30;;
79137;SDS011;68544;45.566;10.238;2024-01-25T11:48:49;39.72;;;35.72;;
79137;SDS011;68544;45.566;10.238;2024-01-25T11:51:15;38.83;;;35.07;;
79137;SDS011;68544;45.566;10.238;2024-01-25T11:53:40;38.90;;;35.20;;
79137;SDS011;68544;45.566;10.238;2024-01-25T11:56:09;38.88;;;34.97;;
79137;SDS011;68544;45.566;10.238;2024-01-25T11:58:41;37.05;;;33.45;;
79137;SDS011;68544;45.566;10.238;2024-01-25T12:01:08;38.88;;;34.97;;
79137;SDS011;68544;45.566;10.238;2024-01-25T12:03:35;36.45;;;32.75;;
79137;SDS011;68544;45.566;10.238;2024-01-25T12:06:03;36.08;;;32.47;;
79137;SDS011;68544;45.566;10.238;2024-01-25T12:11:08;37.28;;;33.58;;
79137;SDS011;68544;45.566;10.238;2024-01-25T12:13:35;38.15;;;34.45;;
79137;SDS011;68544;45.566;10.238;2024-01-25T12:16:02;37.67;;;33.55;;
79137;SDS011;68544;45.566;10.238;2024-01-25T12:18:28;35.85;;;32.30;;
79137;SDS011;68544;45.566;10.238;2024-01-25T12:23:20;35.93;;;32.27;;
79137;SDS011;68544;45.566;10.238;2024-01-25T12:25:45;37.23;;;33.27;;
79137;SDS011;68544;45.566;10.238;2024-01-25T12:28:11;38.47;;;34.60;;
79137;SDS011;68544;45.566;10.238;2024-01-25T12:30:36;39.13;;;35.00;;
79137;SDS011;68544;45.566;10.238;2024-01-25T12:33:01;38.30;;;34.50;;
79137;SDS011;68544;45.566;10.238;2024-01-25T12:35:27;38.13;;;34.15;;
79137;SDS011;68544;45.566;10.238;2024-01-25T12:37:52;40.40;;;35.87;;
79137;SDS011;68544;45.566;10.238;2024-01-25T12:40:17;39.70;;;35.67;;
79137;SDS011;68544;45.566;10.238;2024-01-25T12:42:43;39.37;;;35.57;;
79137;SDS011;68544;45.566;10.238;2024-01-25T12:45:08;41.47;;;37.10;;
79137;SDS011;68544;45.566;10.238;2024-01-25T12:47:34;41.35;;;37.15;;
79137;SDS011;68544;45.566;10.238;2024-01-25T12:49:59;41.47;;;37.40;;
79137;SDS011;68544;45.566;10.238;2024-01-25T12:52:24;42.33;;;38.17;;
79137;SDS011;68544;45.566;10.238;2024-01-25T12:54:50;45.27;;;39.50;;
79137;SDS011;68544;45.566;10.238;2024-01-25T12:57:15;43.53;;;39.00;;
79137;SDS011;68544;45.566;10.238;2024-01-25T12:59:40;41.00;;;36.37;;
79137;SDS011;68544;45.566;10.238;2024-01-25T13:02:06;42.47;;;37.93;;
79137;SDS011;68544;45.566;10.238;2024-01-25T13:04:32;42.75;;;38.47;;
79137;SDS011;68544;45.566;10.238;2024-01-25T13:06:58;43.07;;;38.60;;
79137;SDS011;68544;45.566;10.238;2024-01-25T13:09:23;44.97;;;40.30;;
79137;SDS011;68544;45.566;10.238;2024-01-25T13:11:49;44.60;;;39.00;;
79137;SDS011;68544;45.566;10.238;2024-01-25T13:14:17;46.10;;;41.28;;
79137;SDS011;68544;45.566;10.238;2024-01-25T13:16:42;45.37;;;40.83;;
79137;SDS011;68544;45.566;10.238;2024-01-25T13:19:08;45.17;;;40.50;;
79137;SDS011;68544;45.566;10.238;2024-01-25T13:21:33;44.60;;;40.08;;
79137;SDS011;68544;45.566;10.238;2024-01-25T13:23:59;45.00;;;40.13;;
79137;SDS011;68544;45.566;10.238;2024-01-25T13:26:25;46.97;;;42.20;;
79137;SDS011;68544;45.566;10.238;2024-01-25T13:28:50;45.03;;;40.27;;
79137;SDS011;68544;45.566;10.238;2024-01-25T13:31:16;46.13;;;41.43;;
79137;SDS011;68544;45.566;10.238;2024-01-25T13:33:41;46.50;;;41.70;;
79137;SDS011;68544;45.566;10.238;2024-01-25T13:36:07;48.23;;;43.03;;
79137;SDS011;68544;45.566;10.238;2024-01-25T13:38:34;46.90;;;42.13;;
79137;SDS011;68544;45.566;10.238;2024-01-25T13:41:00;45.92;;;40.92;;
79137;SDS011;68544;45.566;10.238;2024-01-25T13:43:25;45.57;;;41.00;;
79137;SDS011;68544;45.566;10.238;2024-01-25T13:45:50;46.13;;;41.30;;
79137;SDS011;68544;45.566;10.238;2024-01-25T13:48:16;46.53;;;41.27;;
79137;SDS011;68544;45.566;10.238;2024-01-25T13:50:42;44.92;;;40.08;;
79137;SDS011;68544;45.566;10.238;2024-01-25T13:53:08;45.17;;;40.20;;
79137;SDS011;68544;45.566;10.238;2024-01-25T13:55:33;42.53;;;38.10;;
79137;SDS011;68544;45.566;10.238;2024-01-25T13:57:58;43.17;;;38.57;;
79137;SDS011;68544;45.566;10.238;2024-01-25T14:00:24;46.77;;;39.43;;
79137;SDS011;68544;45.566;10.238;2024-01-25T14:02:49;41.97;;;37.57;;
79137;SDS011;68544;45.566;10.238;2024-01-25T14:05:15;42.73;;;38.10;;
79137;SDS011;68544;45.566;10.238;2024-01-25T14:07:40;39.70;;;35.40;;
79137;SDS011;68544;45.566;10.238;2024-01-25T14:10:07;39.83;;;35.67;;